Time;durP1;ratioP1;P1;durP2;ratioP2;P2;SDS_P1;SDS_P2;PMS_P1;PMS_P2;Temp;Humidity;BMP_temperature;BMP_pressure;BME280_temperature;BME280_humidity;BME280_pressure;Samples;Min_cycle;Max_cycle;Signal;HPM_P1;HPM_P2
2022/11/25 00:10:42;;;;;;;94.00;29.40;;;;;;;2.41;91.96;100334.90;661623;1309;138465;-76
2022/11/25 00:25:45;;;;;;;67.50;22.80;;;;;;;2.46;91.53;100333.60;661559;1309;138902;-76
2022/11/25 00:44:34;;;;;;;72.10;24.70;;;;;;;2.41;91.54;100341.44;661594;1302;138969;-76
2022/11/25 00:56:15;;;;;;;62.30;22.60;;;;;;;2.39;91.09;100349.16;661662;1304;138658;-76
2022/11/25 01:11:22;;;;;;;76.00;24.80;;;;;;;2.40;90.86;100350.48;661356;1310;138543;-76
2022/11/25 01:26:26;;;;;;;79.50;26.30;;;;;;;2.40;91.01;100342.23;661618;1309;138969;-77
2022/11/25 01:41:31;;;;;;;82.10;26.10;;;;;;;2.37;91.27;100359.46;661259;1310;138617;-78
2022/11/25 01:56:46;;;;;;;69.10;21.40;;;;;;;2.37;90.89;100361.89;661227;1309;138742;-77
2022/11/25 02:11:50;;;;;;;89.90;37.00;;;;;;;2.40;90.85;100371.57;661397;1300;138768;-76
2022/11/25 02:26:54;;;;;;;68.00;23.80;;;;;;;2.38;91.16;100378.20;661517;1296;307041;-76
2022/11/25 02:41:59;;;;;;;66.00;25.40;;;;;;;2.36;91.22;100396.07;661478;1306;139700;-77
2022/11/25 02:57:02;;;;;;;66.10;25.10;;;;;;;2.41;91.03;100403.61;661525;1309;139270;-78
2022/11/25 03:12:20;;;;;;;62.40;20.70;;;;;;;2.44;90.69;100417.39;661470;1309;138791;-78
2022/11/25 03:27:28;;;;;;;53.30;18.60;;;;;;;2.38;90.50;100429.66;661557;1305;138394;-78
2022/11/25 03:42:32;;;;;;;50.90;18.90;;;;;;;2.38;90.72;100441.91;660981;1310;138606;-78
2022/11/25 03:57:36;;;;;;;68.10;29.80;;;;;;;2.39;90.90;100444.43;661081;1310;138864;-78
2022/11/25 04:12:47;;;;;;;69.40;21.00;;;;;;;2.36;90.93;100447.55;661101;1307;139298;-78
2022/11/25 04:27:57;;;;;;;69.30;22.70;;;;;;;2.36;91.04;100453.20;661544;1307;139314;-78
2022/11/25 04:43:05;;;;;;;70.30;27.10;;;;;;;2.39;91.20;100454.11;661401;1310;138745;-78
2022/11/25 04:59:38;;;;;;;63.90;20.80;;;;;;;2.33;91.63;100454.56;661684;1304;138987;-78
2022/11/25 05:13:38;;;;;;;79.20;27.10;;;;;;;2.31;91.72;100463.29;661404;1310;138515;-78
2022/11/25 05:28:42;;;;;;;76.80;26.70;;;;;;;2.34;91.54;100466.81;661771;1307;139006;-78
2022/11/25 05:43:46;;;;;;;118.00;38.70;;;;;;;2.32;91.18;100473.45;661112;1310;138960;-78
2022/11/25 05:58:50;;;;;;;76.80;27.50;;;;;;;2.38;90.92;100481.60;660914;1310;139135;-78
2022/11/25 06:13:56;;;;;;;59.00;23.70;;;;;;;2.40;91.24;100495.34;661707;1305;138405;-78
2022/11/25 06:29:00;;;;;;;;;;;;;;;2.38;90.97;100509.05;661548;1308;138701;-78
2022/11/25 06:44:04;;;;;;;119.70;47.80;;;;;;;2.37;91.09;100514.80;661213;1310;124626;-78
2022/11/25 06:59:08;;;;;;;147.80;45.90;;;;;;;2.38;91.09;100524.73;661264;1298;138980;-78
2022/11/25 07:14:13;;;;;;;83.80;32.70;;;;;;;2.34;91.30;100543.63;661422;1295;138915;-78
2022/11/25 07:29:17;;;;;;;71.70;25.90;;;;;;;2.21;90.77;100555.10;661337;1304;138878;-77
2022/11/25 07:44:40;;;;;;;93.50;34.00;;;;;;;2.18;90.71;100553.88;661597;1309;139870;-78
2022/11/25 08:00:07;;;;;;;112.10;34.90;;;;;;;2.29;90.81;100561.50;661743;1310;138939;-78
2022/11/25 08:15:14;;;;;;;80.40;28.90;;;;;;;2.35;91.43;100572.20;661345;1295;138653;-78
2022/11/25 08:30:20;;;;;;;82.90;28.80;;;;;;;2.38;91.79;100580.71;661598;1304;138485;-78
2022/11/25 08:45:24;;;;;;;87.30;28.60;;;;;;;2.38;91.58;100581.59;660998;1306;138783;-78
2022/11/25 09:00:28;;;;;;;112.30;37.50;;;;;;;2.36;91.77;100588.55;661151;1305;138809;-78
2022/11/25 09:15:32;;;;;;;81.80;25.80;;;;;;;2.54;91.13;100594.05;661452;1310;138673;-78
2022/11/25 09:30:39;;;;;;;98.20;33.80;;;;;;;2.68;90.26;100602.20;661675;1310;138494;-77
2022/11/25 10:01:49;;;;;;;81.30;28.00;;;;;;;2.63;89.34;100617.62;661076;1290;138734;-79
2022/11/25 10:17:06;;;;;;;96.10;39.80;;;;;;;2.77;88.97;100627.66;661296;1309;138685;-78
2022/11/25 10:32:23;;;;;;;111.00;40.30;;;;;;;2.87;88.51;100626.48;661270;1310;138578;-77
2022/11/25 10:47:26;;;;;;;;;;;;;;;2.76;87.91;100634.42;661191;1307;138912;-77
2022/11/25 11:02:40;;;;;;;113.60;36.50;;;;;;;2.81;87.53;100633.47;661503;1310;124808;-77
2022/11/25 11:17:44;;;;;;;111.90;37.90;;;;;;;2.94;87.32;100627.67;661177;1303;138743;-76
2022/11/25 11:33:25;;;;;;;73.50;26.80;;;;;;;2.96;87.48;100632.92;661371;1310;138726;-76
2022/11/25 11:48:40;;;;;;;89.20;35.50;;;;;;;2.98;87.15;100635.23;661488;1310;138828;-77
2022/11/25 12:03:54;;;;;;;96.30;35.60;;;;;;;2.99;86.82;100635.35;661459;1310;139831;-75
2022/11/25 12:19:18;;;;;;;192.30;83.90;;;;;;;2.90;85.95;100645.67;661659;1309;138585;-76
2022/11/25 12:34:33;;;;;;;111.20;37.70;;;;;;;2.85;86.09;100658.55;661645;1310;138752;-77
2022/11/25 12:49:47;;;;;;;90.10;34.10;;;;;;;3.04;86.46;100660.35;661271;1310;139870;-77
2022/11/25 13:05:09;;;;;;;86.20;35.90;;;;;;;3.20;86.50;100661.10;661174;1310;138655;-76
2022/11/25 13:20:36;;;;;;;112.60;40.70;;;;;;;3.18;86.11;100679.89;661270;1305;138782;-76
2022/11/25 13:35:42;;;;;;;106.00;37.50;;;;;;;3.07;86.82;100689.56;661399;1310;138704;-75
2022/11/25 13:50:47;;;;;;;114.30;42.50;;;;;;;2.94;87.11;100692.09;661591;1310;138850;-75
2022/11/25 14:06:13;;;;;;;332.50;97.90;;;;;;;2.82;87.20;100698.06;661329;1310;138673;-76
2022/11/25 14:21:20;;;;;;;91.50;36.20;;;;;;;2.77;87.36;100705.52;661484;1297;138968;-75
2022/11/25 14:36:32;;;;;;;96.80;36.50;;;;;;;2.83;87.40;100714.44;661447;1304;166125;-75
2022/11/25 14:51:37;;;;;;;129.20;43.30;;;;;;;2.77;87.44;100722.80;662992;1299;138764;-75
2022/11/25 15:06:47;;;;;;;84.30;30.10;;;;;;;2.68;87.34;100741.07;661137;1310;138741;-75
2022/11/25 15:22:00;;;;;;;168.20;56.10;;;;;;;2.90;88.47;100756.08;661232;1310;138598;-75
2022/11/25 15:37:24;;;;;;;185.50;78.70;;;;;;;2.75;87.37;100759.38;661430;1310;138828;-75
2022/11/25 15:52:31;;;;;;;297.20;94.90;;;;;;;2.63;87.05;100757.19;661226;1310;138723;-76
2022/11/25 16:07:35;;;;;;;167.90;60.90;;;;;;;2.59;87.35;100761.34;661440;1309;138611;-76
2022/11/25 16:22:40;;;;;;;128.10;48.80;;;;;;;2.53;87.23;100768.52;661491;1299;138732;-76
2022/11/25 16:37:44;;;;;;;178.70;62.20;;;;;;;2.56;87.66;100768.20;661380;1310;139262;-77
2022/11/25 16:52:51;;;;;;;128.10;47.90;;;;;;;2.60;87.59;100764.60;660940;1310;138726;-76
2022/11/25 17:07:55;;;;;;;166.30;66.40;;;;;;;2.60;87.54;100777.17;661335;1309;138759;-77
2022/11/25 17:22:59;;;;;;;229.50;88.80;;;;;;;2.58;87.72;100783.83;661015;1310;138691;-76
2022/11/25 17:38:10;;;;;;;173.50;67.10;;;;;;;2.62;87.41;100788.67;660849;1306;138736;-76
2022/11/25 17:53:14;;;;;;;131.90;50.80;;;;;;;2.61;87.50;100794.73;661259;1310;138822;-75
2022/11/25 18:08:18;;;;;;;151.50;59.10;;;;;;;2.63;87.83;100802.24;660733;1298;138909;-75
2022/11/25 18:23:22;;;;;;;197.70;94.30;;;;;;;2.56;88.11;100805.86;661372;1307;138738;-75
2022/11/25 18:38:25;;;;;;;121.60;45.30;;;;;;;2.51;87.84;100821.11;661219;1310;138882;-75
2022/11/25 18:53:29;;;;;;;105.50;39.50;;;;;;;2.57;88.04;100830.52;661084;1302;140353;-74
2022/11/25 19:08:32;;;;;;;123.20;49.10;;;;;;;2.56;87.61;100838.48;661028;1310;138784;-75
2022/11/25 19:23:36;;;;;;;95.10;33.30;;;;;;;2.65;87.64;100843.60;660524;1305;138895;-75
2022/11/25 19:38:40;;;;;;;114.40;38.50;;;;;;;2.68;87.67;100858.18;661008;1298;138675;-77
2022/11/25 19:53:44;;;;;;;130.20;47.90;;;;;;;2.69;87.37;100870.40;661031;1300;138900;-75
2022/11/25 20:08:47;;;;;;;150.10;55.10;;;;;;;2.75;87.38;100887.72;661279;1310;138612;-75
2022/11/25 20:23:51;;;;;;;121.40;43.90;;;;;;;2.69;87.64;100898.69;661152;1310;138948;-77
2022/11/25 20:38:58;;;;;;;145.40;56.30;;;;;;;2.63;87.73;100912.61;661423;1300;138642;-77
2022/11/25 20:54:02;;;;;;;;;;;;;;;2.70;87.85;100912.82;661272;1295;138883;-75
2022/11/25 21:09:15;;;;;;;92.20;34.30;;;;;;;2.67;88.28;100922.48;661361;1309;124534;-75
2022/11/25 21:24:29;;;;;;;126.60;47.00;;;;;;;2.64;88.66;100932.25;661026;1302;138549;-75
2022/11/25 21:39:34;;;;;;;211.90;73.00;;;;;;;2.55;89.20;100931.97;661444;1304;138752;-76
2022/11/25 21:54:39;;;;;;;167.00;51.10;;;;;;;2.58;89.45;100943.59;660922;1304;138826;-75
2022/11/25 22:09:43;;;;;;;139.80;44.20;;;;;;;2.65;89.08;100957.08;661410;1296;138785;-76
2022/11/25 22:24:46;;;;;;;115.60;41.80;;;;;;;2.74;88.72;100964.66;661191;1310;138680;-75
2022/11/25 22:39:50;;;;;;;116.00;41.20;;;;;;;2.71;88.93;100972.20;661254;1310;139101;-75
2022/11/25 22:54:56;;;;;;;93.80;34.10;;;;;;;2.72;88.85;100982.70;661237;1296;138717;-75
2022/11/25 23:10:00;;;;;;;95.60;34.60;;;;;;;2.77;88.83;100988.15;661499;1310;138507;-75
2022/11/25 23:25:10;;;;;;;84.40;32.20;;;;;;;2.74;89.28;100997.45;661172;1310;138606;-75
2022/11/25 23:40:19;;;;;;;89.00;33.60;;;;;;;2.73;89.08;101010.31;660654;1311;138590;-76
2022/11/25 23:55:29;;;;;;;122.50;39.90;;;;;;;2.77;89.28;101014.77;660681;1310;139203;-76
